Time;durP1;ratioP1;P1;durP2;ratioP2;P2;SDS_P1;SDS_P2;PMS_P1;PMS_P2;Temp;Humidity;BMP_temperature;BMP_pressure;BME280_temperature;BME280_humidity;BME280_pressure;Samples;Min_cycle;Max_cycle;Signal;HPM_P1;HPM_P2
2022/09/07 00:01:37;;;;;;;;;;;18.60;99.90;;;;;;4995783;28;19926;-84
2022/09/07 00:04:03;;;;;;;;;;;18.60;99.90;;;;;;5007463;28;19925;-82
2022/09/07 00:06:29;;;;;;;;;;;18.60;99.90;;;;;;5003066;28;20016;-85
2022/09/07 00:08:55;;;;;;;;;;;18.60;99.90;;;;;;5006856;28;19932;-84
2022/09/07 00:11:21;;;;;;;;;;;18.50;99.90;;;;;;4992348;28;19929;-85
2022/09/07 00:13:48;;;;;;;;;;;18.50;99.90;;;;;;4988742;28;19936;-85
2022/09/07 00:16:17;;;;;;;;;;;18.50;99.90;;;;;;4993706;28;19940;-84
2022/09/07 00:18:43;;;;;;;;;;;18.40;99.90;;;;;;4994649;28;19925;-85
2022/09/07 00:21:09;;;;;;;;;;;18.40;99.90;;;;;;5008933;28;19932;-83
2022/09/07 00:23:37;;;;;;;;;;;18.40;99.90;;;;;;4987503;28;19926;-84
2022/09/07 00:26:10;;;;;;;;;;;18.40;99.90;;;;;;5009116;28;20103;-84
2022/09/07 00:28:37;;;;;;;;;;;18.30;99.90;;;;;;5009390;28;19929;-84
2022/09/07 00:31:03;;;;;;;;;;;18.30;99.90;;;;;;5008777;28;19936;-84
2022/09/07 00:33:29;;;;;;;;;;;18.30;99.90;;;;;;4989137;28;19933;-83
2022/09/07 00:35:56;;;;;;;;;;;18.30;99.90;;;;;;4992535;28;19929;-83
2022/09/07 00:38:25;;;;;;;;;;;18.30;99.90;;;;;;5001197;28;19926;-84
2022/09/07 00:40:52;;;;;;;;;;;18.20;99.90;;;;;;4984074;28;19953;-83
2022/09/07 00:43:33;;;;;;;;;;;18.20;99.90;;;;;;4967567;28;20072;-84
2022/09/07 00:45:59;;;;;;;;;;;18.20;99.90;;;;;;5011664;28;20316;-84
2022/09/07 00:48:29;;;;;;;;;;;18.20;99.90;;;;;;4997208;28;19937;-85
2022/09/07 00:51:00;;;;;;;;;;;18.20;99.90;;;;;;5009979;28;19925;-85
2022/09/07 00:53:32;;;;;;;;;;;18.10;99.90;;;;;;4991395;28;20291;-83
2022/09/07 00:55:58;;;;;;;;;;;18.10;99.90;;;;;;4993792;28;20144;-83
2022/09/07 00:58:24;;;;;;;;;;;18.10;99.90;;;;;;4995673;28;19936;-85
2022/09/07 01:00:50;;;;;;;;;;;18.10;99.90;;;;;;4976618;28;19929;-84
2022/09/07 01:03:18;;;;;;;;;;;18.00;99.90;;;;;;5001529;28;19925;-83
2022/09/07 01:05:49;;;;;;;;;;;18.10;99.90;;;;;;5009783;28;19929;-82
2022/09/07 01:08:15;;;;;;;;;;;18.00;99.90;;;;;;4992601;28;19933;-84
2022/09/07 01:10:42;;;;;;;;;;;18.00;99.90;;;;;;5008899;28;19925;-83
2022/09/07 01:13:07;;;;;;;;;;;18.00;99.90;;;;;;5001439;28;20395;-83
2022/09/07 01:15:46;;;;;;;;;;;18.10;99.90;;;;;;4992110;28;19933;-84
2022/09/07 01:18:14;;;;;;;;;;;18.00;99.90;;;;;;5006057;28;20412;-85
2022/09/07 01:20:49;;;;;;;;;;;18.00;99.90;;;;;;4991229;28;19975;-85
2022/09/07 01:23:21;;;;;;;;;;;18.00;99.90;;;;;;5007001;28;19975;-83
2022/09/07 01:26:10;;;;;;;;;;;18.00;99.90;;;;;;5008543;28;19926;-84
2022/09/07 01:28:37;;;;;;;;;;;17.90;99.90;;;;;;5002820;28;19987;-84
2022/09/07 01:31:21;;;;;;;;;;;17.90;99.90;;;;;;4988546;28;19961;-82
2022/09/07 01:34:06;;;;;;;;;;;17.90;99.90;;;;;;4998988;28;19938;-80
2022/09/07 01:36:38;;;;;;;;;;;18.00;99.90;;;;;;5003284;28;19963;-82
2022/09/07 01:39:04;;;;;;;;;;;18.00;99.90;;;;;;5002023;28;19933;-79
2022/09/07 01:41:39;;;;;;;;;;;17.90;99.90;;;;;;5006897;28;19925;-84
2022/09/07 01:44:14;;;;;;;;;;;17.90;99.90;;;;;;5014627;28;20000;-86
2022/09/07 01:46:42;;;;;;;;;;;17.90;99.90;;;;;;5009916;28;22426;-85
2022/09/07 01:49:15;;;;;;;;;;;17.80;99.90;;;;;;5007367;28;19932;-81
2022/09/07 01:51:45;;;;;;;;;;;17.80;99.90;;;;;;4988844;28;19933;-83
2022/09/07 01:54:17;;;;;;;;;;;17.70;99.90;;;;;;5022425;28;19975;-85
2022/09/07 01:56:45;;;;;;;;;;;17.70;99.90;;;;;;5003615;28;19987;-83
2022/09/07 01:59:21;;;;;;;;;;;17.60;99.90;;;;;;5002781;28;20044;-86
2022/09/07 02:01:53;;;;;;;;;;;17.60;99.90;;;;;;4986893;28;19921;-80
2022/09/07 02:04:21;;;;;;;;;;;17.50;99.90;;;;;;5009160;28;19925;-93
2022/09/07 13:28:39;;;;;;;;;;;23.10;99.90;;;;;;4823338;23;19940;-80
2022/09/07 13:31:24;;;;;;;;;;;23.10;99.90;;;;;;4967347;28;19937;-80
2022/09/07 13:33:51;;;;;;;;;;;23.10;99.90;;;;;;4986521;28;19917;-79
2022/09/07 13:36:17;;;;;;;;;;;22.90;99.90;;;;;;4971947;28;19937;-79
2022/09/07 13:38:59;;;;;;;;;;;22.90;99.90;;;;;;4986206;28;20373;-80
2022/09/07 13:41:32;;;;;;;;;;;22.90;99.90;;;;;;4971838;28;19936;-79
2022/09/07 13:44:00;;;;;;;;;;;23.00;99.90;;;;;;4957598;28;19972;-79
2022/09/07 13:46:29;;;;;;;;;;;23.10;99.90;;;;;;4953209;28;19985;-82
2022/09/07 13:49:00;;;;;;;;;;;23.10;99.90;;;;;;4980079;28;19926;-79
2022/09/07 13:51:44;;;;;;;;;;;23.00;99.90;;;;;;4953609;28;19987;-78
2022/09/07 13:54:43;;;;;;;;;;;22.90;99.90;;;;;;4987005;28;19929;-79
2022/09/07 13:57:21;;;;;;;;;;;22.80;99.90;;;;;;4932073;28;19929;-78
2022/09/07 13:59:48;;;;;;;;;;;22.80;99.90;;;;;;4975959;28;19937;-79
2022/09/07 14:02:23;;;;;;;;;;;22.80;99.90;;;;;;4963008;28;19934;-79
2022/09/07 14:04:50;;;;;;;;;;;22.90;99.90;;;;;;4973342;28;19948;-81
2022/09/07 14:07:20;;;;;;;;;;;22.90;99.90;;;;;;4984008;28;19987;-81
2022/09/07 14:09:49;;;;;;;;;;;22.90;99.90;;;;;;4953703;28;20012;-80
2022/09/07 14:12:20;;;;;;;;;;;22.90;99.90;;;;;;4946799;28;20385;-79
2022/09/07 14:15:04;;;;;;;;;;;22.90;99.90;;;;;;4976994;28;19925;-79
2022/09/07 14:17:33;;;;;;;;;;;22.90;99.90;;;;;;4990388;28;20010;-82
2022/09/07 14:19:59;;;;;;;;;;;22.70;99.90;;;;;;4962316;28;19941;-80
2022/09/07 14:22:29;;;;;;;;;;;22.80;99.90;;;;;;4953540;28;19933;-80
2022/09/07 14:24:56;;;;;;;;;;;22.80;99.90;;;;;;4954727;28;19926;-80
2022/09/07 14:27:25;;;;;;;;;;;22.80;99.90;;;;;;4983371;28;19941;-81
2022/09/07 14:29:52;;;;;;;;;;;22.70;99.90;;;;;;4979523;28;20012;-80
2022/09/07 14:32:21;;;;;;;;;;;22.70;99.90;;;;;;4962474;28;19984;-80
2022/09/07 14:34:48;;;;;;;;;;;22.70;99.90;;;;;;4981420;28;20403;-81
2022/09/07 14:37:24;;;;;;;;;;;22.70;99.90;;;;;;4961808;28;19930;-81
2022/09/07 14:39:52;;;;;;;;;;;22.70;99.90;;;;;;4975608;28;20004;-83
2022/09/07 14:42:28;;;;;;;;;;;22.70;99.90;;;;;;4944109;28;19949;-80
2022/09/07 14:45:18;;;;;;;;;;;22.60;99.90;;;;;;4974572;28;19925;-82
2022/09/07 14:47:47;;;;;;;;;;;22.60;99.90;;;;;;4977320;28;20000;-83
2022/09/07 14:50:15;;;;;;;;;;;22.60;99.90;;;;;;4995024;28;19936;-81
2022/09/07 14:52:46;;;;;;;;;;;22.60;99.90;;;;;;4972288;28;19934;-81
2022/09/07 14:55:24;;;;;;;;;;;22.50;99.90;;;;;;4964991;28;19957;-79
2022/09/07 14:58:10;;;;;;;;;;;22.60;99.90;;;;;;4972592;28;19925;-81
2022/09/07 15:00:37;;;;;;;;;;;22.60;99.90;;;;;;4952590;28;20768;-80
2022/09/07 15:03:24;;;;;;;;;;;22.60;99.90;;;;;;4968376;28;20158;-81
2022/09/07 15:05:50;;;;;;;;;;;22.70;99.90;;;;;;4971342;28;20357;-83
2022/09/07 15:08:34;;;;;;;;;;;22.60;99.90;;;;;;4953620;28;20004;-82
2022/09/07 15:11:11;;;;;;;;;;;22.60;99.90;;;;;;4986284;28;19933;-80
2022/09/07 15:13:43;;;;;;;;;;;22.60;99.90;;;;;;4963685;28;19929;-80
2022/09/07 15:16:22;;;;;;;;;;;22.50;99.90;;;;;;4967487;28;19922;-81
2022/09/07 15:18:54;;;;;;;;;;;22.50;99.90;;;;;;4974008;28;20415;-80
2022/09/07 15:21:21;;;;;;;;;;;22.40;99.90;;;;;;4976734;28;20345;-82
2022/09/07 15:23:48;;;;;;;;;;;22.40;99.90;;;;;;4947667;28;20300;-83
2022/09/07 15:26:14;;;;;;;;;;;22.40;99.90;;;;;;4971596;28;19932;-83
2022/09/07 15:28:39;;;;;;;;;;;22.30;99.90;;;;;;4986238;28;20391;-79
2022/09/07 15:31:05;;;;;;;;;;;22.30;99.90;;;;;;4976106;28;20403;-81
2022/09/07 15:33:31;;;;;;;;;;;22.30;99.90;;;;;;4970946;28;20455;-82
2022/09/07 15:35:57;;;;;;;;;;;22.30;99.90;;;;;;4961736;28;20004;-81
2022/09/07 15:38:24;;;;;;;;;;;22.30;99.90;;;;;;4971371;28;20025;-81
2022/09/07 15:40:54;;;;;;;;;;;22.40;99.90;;;;;;4985931;28;19930;-80
2022/09/07 15:43:20;;;;;;;;;;;22.40;99.90;;;;;;4953879;28;19930;-82
2022/09/07 15:45:46;;;;;;;;;;;22.30;99.90;;;;;;4976698;28;20020;-80
2022/09/07 15:48:13;;;;;;;;;;;22.30;99.90;;;;;;4981198;28;19953;-82
2022/09/07 15:50:39;;;;;;;;;;;22.40;99.90;;;;;;4981293;28;20021;-82
2022/09/07 15:53:05;;;;;;;;;;;22.40;99.90;;;;;;4978236;28;19926;-81
2022/09/07 15:55:37;;;;;;;;;;;22.40;99.90;;;;;;4968225;28;19933;-80
2022/09/07 15:58:03;;;;;;;;;;;22.40;99.90;;;;;;4982102;28;20253;-81
2022/09/07 16:00:29;;;;;;;;;;;22.40;99.90;;;;;;4980652;28;19934;-79
2022/09/07 16:02:55;;;;;;;;;;;22.40;99.90;;;;;;4965283;28;20650;-82
2022/09/07 16:05:21;;;;;;;;;;;22.40;99.90;;;;;;4969380;28;19993;-80
2022/09/07 16:07:47;;;;;;;;;;;22.30;99.90;;;;;;4957473;28;20393;-79
2022/09/07 16:10:13;;;;;;;;;;;22.30;99.90;;;;;;4970250;28;19929;-80
2022/09/07 16:12:40;;;;;;;;;;;22.30;99.90;;;;;;4978870;28;19934;-79
2022/09/07 16:15:06;;;;;;;;;;;22.30;99.90;;;;;;4977275;28;20036;-79
2022/09/07 16:17:32;;;;;;;;;;;22.30;99.90;;;;;;4975631;28;20016;-80
2022/09/07 16:19:58;;;;;;;;;;;22.30;99.90;;;;;;4976565;28;20440;-79
2022/09/07 16:22:25;;;;;;;;;;;22.20;99.90;;;;;;4996037;28;20367;-78
2022/09/07 16:24:51;;;;;;;;;;;22.20;99.90;;;;;;4975268;28;20028;-79
2022/09/07 16:27:17;;;;;;;;;;;22.20;99.90;;;;;;4977509;28;19937;-79
2022/09/07 16:29:43;;;;;;;;;;;22.20;99.90;;;;;;4996974;28;19937;-79
2022/09/07 16:32:10;;;;;;;;;;;22.20;99.90;;;;;;4970285;28;19973;-77
2022/09/07 16:34:36;;;;;;;;;;;22.10;99.90;;;;;;4974032;28;19938;-78
2022/09/07 16:37:01;;;;;;;;;;;22.10;99.90;;;;;;4960352;28;19937;-80
2022/09/07 16:39:30;;;;;;;;;;;22.10;99.90;;;;;;4949964;28;21119;-81
2022/09/07 16:41:56;;;;;;;;;;;22.10;99.90;;;;;;4946095;28;19930;-80
2022/09/07 16:44:22;;;;;;;;;;;22.10;99.90;;;;;;4978072;28;19940;-79
2022/09/07 16:46:48;;;;;;;;;;;22.10;99.90;;;;;;4983564;28;19936;-80
2022/09/07 16:49:15;;;;;;;;;;;22.10;99.90;;;;;;4954780;28;19933;-79
2022/09/07 16:51:41;;;;;;;;;;;22.00;99.90;;;;;;4976083;28;20518;-79
2022/09/07 16:54:14;;;;;;;;;;;22.00;99.90;;;;;;4964856;28;19930;-80
2022/09/07 16:56:46;;;;;;;;;;;21.90;99.90;;;;;;4977870;28;19930;-80
2022/09/07 16:59:31;;;;;;;;;;;21.90;99.90;;;;;;4955817;28;21114;-79
2022/09/07 17:01:56;;;;;;;;;;;21.80;99.90;;;;;;4977334;28;19929;-78
2022/09/07 17:04:22;;;;;;;;;;;21.80;99.90;;;;;;4938566;28;19975;-80
2022/09/07 17:06:50;;;;;;;;;;;21.80;99.90;;;;;;4979046;28;20526;-80
2022/09/07 17:09:16;;;;;;;;;;;21.70;99.90;;;;;;4957814;28;20382;-79
2022/09/07 17:11:43;;;;;;;;;;;21.70;99.90;;;;;;4981597;28;19929;-80
2022/09/07 17:14:09;;;;;;;;;;;21.70;99.90;;;;;;4977920;28;20527;-80
2022/09/07 17:16:37;;;;;;;;;;;21.60;99.90;;;;;;4965101;28;20016;-80
2022/09/07 17:19:09;;;;;;;;;;;21.50;99.90;;;;;;4991455;28;19934;-79
2022/09/07 17:21:36;;;;;;;;;;;21.50;99.90;;;;;;4968097;28;19972;-80
2022/09/07 17:24:02;;;;;;;;;;;21.50;99.90;;;;;;4969529;28;20671;-79
2022/09/07 17:26:28;;;;;;;;;;;21.50;99.90;;;;;;4983061;28;19984;-79
2022/09/07 17:28:55;;;;;;;;;;;21.40;99.90;;;;;;4971282;28;19969;-79
2022/09/07 17:31:22;;;;;;;;;;;21.40;99.90;;;;;;4961991;28;19929;-80
2022/09/07 17:33:50;;;;;;;;;;;21.40;99.90;;;;;;4951018;28;19922;-80
2022/09/07 17:36:17;;;;;;;;;;;21.30;99.90;;;;;;4948965;28;19925;-79
2022/09/07 17:38:43;;;;;;;;;;;21.20;99.90;;;;;;4948243;28;19932;-80
2022/09/07 17:41:09;;;;;;;;;;;21.20;99.90;;;;;;4949345;28;20289;-79
2022/09/07 17:43:35;;;;;;;;;;;21.10;99.90;;;;;;4965053;28;19975;-79
2022/09/07 17:46:03;;;;;;;;;;;21.10;99.90;;;;;;4978477;28;19934;-79
2022/09/07 17:48:30;;;;;;;;;;;21.10;99.90;;;;;;4948665;28;19932;-81
2022/09/07 17:51:01;;;;;;;;;;;21.10;99.90;;;;;;4944910;28;19980;-80
2022/09/07 17:53:26;;;;;;;;;;;21.00;99.90;;;;;;4960021;28;20439;-80
2022/09/07 17:55:55;;;;;;;;;;;21.00;99.90;;;;;;4952388;28;19934;-79
2022/09/07 17:58:22;;;;;;;;;;;20.90;99.90;;;;;;4938580;28;20405;-82
2022/09/07 18:00:48;;;;;;;;;;;20.90;99.90;;;;;;4966265;28;20291;-81
2022/09/07 18:03:14;;;;;;;;;;;20.90;99.90;;;;;;4924646;28;20009;-82
2022/09/07 18:05:40;;;;;;;;;;;20.80;99.90;;;;;;4922603;28;19927;-82
2022/09/07 18:08:06;;;;;;;;;;;20.70;99.90;;;;;;4920280;28;19930;-81
2022/09/07 18:10:33;;;;;;;;;;;20.70;99.90;;;;;;4934223;28;19981;-79
2022/09/07 18:12:58;;;;;;;;;;;20.70;99.90;;;;;;4959658;28;20393;-80
2022/09/07 18:15:24;;;;;;;;;;;20.70;99.90;;;;;;4962342;28;19977;-82
2022/09/07 18:17:50;;;;;;;;;;;20.60;99.90;;;;;;4951255;28;20374;-82
2022/09/07 18:20:16;;;;;;;;;;;20.60;99.90;;;;;;4955538;28;19929;-81
2022/09/07 18:22:42;;;;;;;;;;;20.60;99.90;;;;;;4946297;28;19922;-81
2022/09/07 18:25:08;;;;;;;;;;;20.50;99.90;;;;;;4918745;28;19927;-81
2022/09/07 18:27:35;;;;;;;;;;;20.50;99.90;;;;;;4946176;28;19933;-81
2022/09/07 18:30:02;;;;;;;;;;;20.40;99.90;;;;;;4976373;28;20443;-81
2022/09/07 18:32:28;;;;;;;;;;;20.40;99.90;;;;;;4962006;28;19926;-79
2022/09/07 18:34:54;;;;;;;;;;;20.30;99.90;;;;;;4960964;28;20333;-80
2022/09/07 18:37:20;;;;;;;;;;;20.30;99.90;;;;;;4974334;28;19926;-80
2022/09/07 18:39:47;;;;;;;;;;;20.20;99.90;;;;;;4960514;28;19926;-80
2022/09/07 18:42:13;;;;;;;;;;;20.20;99.90;;;;;;4964428;28;19964;-80
2022/09/07 18:44:39;;;;;;;;;;;20.20;99.90;;;;;;4935318;28;20013;-80
2022/09/07 18:47:07;;;;;;;;;;;20.10;99.90;;;;;;4945787;28;20526;-79
2022/09/07 18:49:33;;;;;;;;;;;20.00;99.90;;;;;;4959474;28;20611;-80
2022/09/07 18:52:00;;;;;;;;;;;20.00;99.90;;;;;;4934040;28;20317;-80
2022/09/07 18:54:25;;;;;;;;;;;20.00;99.90;;;;;;4944435;28;19970;-80
2022/09/07 18:56:51;;;;;;;;;;;19.90;99.90;;;;;;4963553;28;19987;-80
2022/09/07 18:59:17;;;;;;;;;;;19.90;99.90;;;;;;4975614;28;20280;-81
2022/09/07 19:01:43;;;;;;;;;;;19.80;99.90;;;;;;4945610;28;20329;-80
2022/09/07 19:04:08;;;;;;;;;;;19.60;99.90;;;;;;4958317;28;19932;-79
2022/09/07 19:06:34;;;;;;;;;;;19.60;99.90;;;;;;4933231;28;19926;-81
2022/09/07 19:09:02;;;;;;;;;;;19.60;99.90;;;;;;4942071;28;19937;-80
2022/09/07 19:11:28;;;;;;;;;;;19.50;99.90;;;;;;4916338;28;19982;-80
2022/09/07 19:13:55;;;;;;;;;;;19.40;99.90;;;;;;4960209;28;19929;-80
2022/09/07 19:16:22;;;;;;;;;;;19.40;99.90;;;;;;4951636;28;20011;-79
2022/09/07 19:18:49;;;;;;;;;;;19.30;99.90;;;;;;4979359;28;19981;-81
2022/09/07 19:21:18;;;;;;;;;;;19.30;99.90;;;;;;4958191;28;19999;-81
2022/09/07 19:23:55;;;;;;;;;;;19.20;99.90;;;;;;4946712;28;19926;-83
2022/09/07 19:26:21;;;;;;;;;;;19.30;99.90;;;;;;4961490;28;19984;-81
2022/09/07 19:28:51;;;;;;;;;;;19.20;99.90;;;;;;4958795;28;19930;-81
2022/09/07 19:31:17;;;;;;;;;;;19.20;99.90;;;;;;4963856;28;19934;-81
2022/09/07 19:33:58;;;;;;;;;;;19.10;99.90;;;;;;4979400;28;19935;-85
2022/09/07 19:36:25;;;;;;;;;;;19.10;99.90;;;;;;4936851;28;20382;-85
2022/09/07 19:38:51;;;;;;;;;;;19.00;99.90;;;;;;4963139;28;19942;-82
2022/09/07 19:41:17;;;;;;;;;;;19.00;99.90;;;;;;4964263;28;19945;-83
2022/09/07 19:43:43;;;;;;;;;;;19.00;99.90;;;;;;4975467;28;19956;-83
2022/09/07 19:46:10;;;;;;;;;;;18.90;99.90;;;;;;4947692;28;19984;-83
2022/09/07 19:48:36;;;;;;;;;;;18.90;99.90;;;;;;4961447;28;19933;-81
2022/09/07 19:51:06;;;;;;;;;;;18.80;99.90;;;;;;4959520;28;19930;-80
2022/09/07 19:53:33;;;;;;;;;;;18.80;99.90;;;;;;4933627;28;20360;-82
2022/09/07 19:56:07;;;;;;;;;;;18.80;99.90;;;;;;4937185;28;19933;-81
2022/09/07 19:58:39;;;;;;;;;;;18.80;99.90;;;;;;4948447;28;19934;-81
2022/09/07 20:01:16;;;;;;;;;;;18.80;99.90;;;;;;4939545;28;19980;-79
2022/09/07 20:03:42;;;;;;;;;;;18.70;99.90;;;;;;4934723;28;19930;-82
2022/09/07 20:06:10;;;;;;;;;;;18.70;99.90;;;;;;4941191;28;19926;-79
2022/09/07 20:08:36;;;;;;;;;;;18.70;99.90;;;;;;4936619;28;19926;-79
2022/09/07 20:11:03;;;;;;;;;;;18.70;99.90;;;;;;4952944;28;19926;-80
2022/09/07 20:13:29;;;;;;;;;;;18.70;99.90;;;;;;4959342;28;20413;-80
2022/09/07 20:15:55;;;;;;;;;;;18.60;99.90;;;;;;4947204;28;19933;-81
2022/09/07 20:18:22;;;;;;;;;;;18.60;99.90;;;;;;4967240;28;19928;-81
2022/09/07 20:20:47;;;;;;;;;;;18.60;99.90;;;;;;4983661;28;20010;-80
2022/09/07 20:23:13;;;;;;;;;;;18.50;99.90;;;;;;4966887;28;20017;-82
2022/09/07 20:25:39;;;;;;;;;;;18.40;99.90;;;;;;4949869;28;19922;-80
2022/09/07 20:28:31;;;;;;;;;;;18.30;99.90;;;;;;4933682;28;19949;-82
2022/09/07 20:30:56;;;;;;;;;;;18.10;99.90;;;;;;4961469;28;19926;-80
2022/09/07 20:33:22;;;;;;;;;;;18.20;99.90;;;;;;4956661;28;20416;-80
2022/09/07 20:35:48;;;;;;;;;;;18.10;99.90;;;;;;4936419;28;19977;-80
2022/09/07 20:38:16;;;;;;;;;;;18.10;99.90;;;;;;4936476;28;20436;-81
2022/09/07 20:40:52;;;;;;;;;;;18.10;99.90;;;;;;4957177;28;19926;-82
2022/09/07 20:43:18;;;;;;;;;;;18.10;99.90;;;;;;4953622;28;19988;-81
2022/09/07 20:45:44;;;;;;;;;;;18.00;99.90;;;;;;4937470;28;20377;-81
2022/09/07 20:48:11;;;;;;;;;;;18.00;99.90;;;;;;4920147;28;19989;-80
2022/09/07 20:50:37;;;;;;;;;;;18.00;99.90;;;;;;4936511;28;19941;-80
2022/09/07 20:53:06;;;;;;;;;;;18.00;99.90;;;;;;4936428;28;20494;-81
2022/09/07 20:55:32;;;;;;;;;;;18.00;99.90;;;;;;4936528;28;19944;-80
2022/09/07 20:57:58;;;;;;;;;;;18.00;99.90;;;;;;4949388;28;19949;-80
2022/09/07 21:00:24;;;;;;;;;;;18.00;99.90;;;;;;4935759;28;20435;-80
2022/09/07 21:02:50;;;;;;;;;;;17.90;99.90;;;;;;4921892;28;19926;-79
2022/09/07 21:05:16;;;;;;;;;;;18.00;99.90;;;;;;4918436;28;19949;-79
2022/09/07 21:07:42;;;;;;;;;;;17.90;99.90;;;;;;4924120;28;20054;-79
2022/09/07 21:10:08;;;;;;;;;;;17.90;99.90;;;;;;4936223;28;20320;-80
2022/09/07 21:12:34;;;;;;;;;;;17.90;99.90;;;;;;4935399;28;19981;-79
2022/09/07 21:15:00;;;;;;;;;;;17.90;99.90;;;;;;4934798;28;20410;-79
2022/09/07 21:17:26;;;;;;;;;;;17.80;99.90;;;;;;4968085;28;20401;-79
2022/09/07 21:19:51;;;;;;;;;;;17.80;99.90;;;;;;4950474;28;19930;-80
2022/09/07 21:22:18;;;;;;;;;;;17.80;99.90;;;;;;4936314;28;19934;-80
2022/09/07 21:24:43;;;;;;;;;;;17.80;99.90;;;;;;4951592;28;19930;-81
2022/09/07 21:27:09;;;;;;;;;;;17.70;99.90;;;;;;4942007;28;19933;-81
2022/09/07 21:29:35;;;;;;;;;;;17.70;99.90;;;;;;4950051;28;19934;-86
2022/09/07 21:32:02;;;;;;;;;;;17.70;99.90;;;;;;4918777;28;19965;-81
2022/09/07 21:34:28;;;;;;;;;;;17.60;99.90;;;;;;4935134;28;19934;-81
2022/09/07 21:36:53;;;;;;;;;;;17.60;99.90;;;;;;4938636;28;20481;-82
2022/09/07 21:39:20;;;;;;;;;;;17.60;99.90;;;;;;4934207;28;20021;-85
2022/09/07 21:41:46;;;;;;;;;;;17.60;99.90;;;;;;4953197;28;19938;-82
2022/09/07 21:44:13;;;;;;;;;;;17.60;99.90;;;;;;4929286;28;20634;-81
2022/09/07 21:46:39;;;;;;;;;;;17.60;99.90;;;;;;4937174;28;19988;-81
2022/09/07 21:49:04;;;;;;;;;;;17.60;99.90;;;;;;4951478;28;19927;-81
2022/09/07 21:51:30;;;;;;;;;;;17.50;99.90;;;;;;4968420;28;19937;-81
2022/09/07 21:53:58;;;;;;;;;;;17.50;99.90;;;;;;4950789;28;19938;-81
2022/09/07 21:56:24;;;;;;;;;;;17.50;99.90;;;;;;4950419;28;19926;-80
2022/09/07 21:58:54;;;;;;;;;;;17.50;99.90;;;;;;4950333;28;20305;-81
2022/09/07 22:01:23;;;;;;;;;;;17.50;99.90;;;;;;4934340;28;19926;-85
2022/09/07 22:03:56;;;;;;;;;;;17.40;99.90;;;;;;4935808;28;20316;-84
2022/09/07 22:06:22;;;;;;;;;;;17.40;99.90;;;;;;4967262;28;19930;-83
2022/09/07 22:08:48;;;;;;;;;;;17.40;99.90;;;;;;4935069;28;20373;-84
2022/09/07 22:11:16;;;;;;;;;;;17.30;99.90;;;;;;4966724;28;19930;-86
2022/09/07 22:14:01;;;;;;;;;;;17.30;99.90;;;;;;4936205;28;19972;-86
2022/09/07 22:16:27;;;;;;;;;;;17.30;99.90;;;;;;4966915;28;19934;-84
2022/09/07 22:18:53;;;;;;;;;;;17.30;99.90;;;;;;4950961;28;19934;-82
2022/09/07 22:21:20;;;;;;;;;;;17.20;99.90;;;;;;4950329;28;20475;-81
2022/09/07 22:23:48;;;;;;;;;;;17.20;99.90;;;;;;4950467;28;19934;-81
2022/09/07 22:26:16;;;;;;;;;;;17.10;99.90;;;;;;4949943;28;19973;-80
2022/09/07 22:28:42;;;;;;;;;;;17.20;99.90;;;;;;4952760;28;19926;-81
2022/09/07 22:31:08;;;;;;;;;;;17.20;99.90;;;;;;4951959;28;19937;-81
2022/09/07 22:33:33;;;;;;;;;;;17.20;99.90;;;;;;4966779;28;19926;-82
2022/09/07 22:36:10;;;;;;;;;;;17.20;99.90;;;;;;4969252;28;19997;-79
2022/09/07 22:38:36;;;;;;;;;;;17.20;99.90;;;;;;4968922;28;20468;-80
2022/09/07 22:41:06;;;;;;;;;;;17.20;99.90;;;;;;4984814;28;19976;-81
2022/09/07 22:43:31;;;;;;;;;;;17.20;99.90;;;;;;4936018;28;19930;-81
2022/09/07 22:45:58;;;;;;;;;;;17.30;99.90;;;;;;4952923;28;19937;-81
2022/09/07 22:48:24;;;;;;;;;;;17.20;99.90;;;;;;4986156;28;19934;-81
2022/09/07 22:50:54;;;;;;;;;;;17.30;99.90;;;;;;4952912;28;20380;-82
2022/09/07 22:53:20;;;;;;;;;;;17.20;99.90;;;;;;4984360;28;19955;-81
2022/09/07 22:55:46;;;;;;;;;;;17.20;99.90;;;;;;4953219;28;19932;-82
2022/09/07 22:58:12;;;;;;;;;;;17.10;99.90;;;;;;4963433;28;20008;-82
2022/09/07 23:00:38;;;;;;;;;;;17.00;99.90;;;;;;4936615;28;20348;-81
2022/09/07 23:03:03;;;;;;;;;;;17.00;99.90;;;;;;4968595;28;19969;-82
2022/09/07 23:05:34;;;;;;;;;;;17.00;99.90;;;;;;4969170;28;19937;-80
2022/09/07 23:08:00;;;;;;;;;;;16.90;99.90;;;;;;4985232;28;20042;-80
2022/09/07 23:10:26;;;;;;;;;;;16.90;99.90;;;;;;4955091;28;20669;-81
2022/09/07 23:12:52;;;;;;;;;;;16.90;99.90;;;;;;4953038;28;19926;-80
2022/09/07 23:15:18;;;;;;;;;;;16.80;99.90;;;;;;4953076;28;19953;-81
2022/09/07 23:17:44;;;;;;;;;;;16.80;99.90;;;;;;4970351;28;19944;-83
2022/09/07 23:20:10;;;;;;;;;;;16.80;99.90;;;;;;4961418;28;19992;-80
2022/09/07 23:22:35;;;;;;;;;;;16.80;99.90;;;;;;4957474;28;19926;-80
2022/09/07 23:25:01;;;;;;;;;;;16.80;99.90;;;;;;4957036;28;19980;-83
2022/09/07 23:27:27;;;;;;;;;;;16.80;99.90;;;;;;4972886;28;19934;-81
2022/09/07 23:29:53;;;;;;;;;;;16.80;99.90;;;;;;4938770;28;20436;-81
2022/09/07 23:32:19;;;;;;;;;;;16.70;99.90;;;;;;4955904;28;20575;-80
2022/09/07 23:34:45;;;;;;;;;;;16.70;99.90;;;;;;4991818;28;19926;-80
2022/09/07 23:37:11;;;;;;;;;;;16.70;99.90;;;;;;4956360;28;19926;-80
2022/09/07 23:39:39;;;;;;;;;;;16.70;99.90;;;;;;4967817;28;19934;-81
2022/09/07 23:42:05;;;;;;;;;;;16.70;99.90;;;;;;4964773;28;20009;-81
2022/09/07 23:44:30;;;;;;;;;;;16.80;99.90;;;;;;4951738;28;20075;-80
2022/09/07 23:46:56;;;;;;;;;;;16.80;99.90;;;;;;4956520;28;19933;-82
2022/09/07 23:49:22;;;;;;;;;;;16.80;99.90;;;;;;4967972;28;19937;-81
2022/09/07 23:51:48;;;;;;;;;;;16.80;99.90;;;;;;4952182;28;19933;-81
2022/09/07 23:54:14;;;;;;;;;;;16.80;99.90;;;;;;4954688;28;20373;-85
2022/09/07 23:56:41;;;;;;;;;;;16.80;99.90;;;;;;4953864;28;20317;-83
2022/09/07 23:59:07;;;;;;;;;;;16.80;99.90;;;;;;4949732;28;19926;-84
